sensor_id;sensor_type;location;lat;lon;timestamp;P1;durP1;ratioP1;P2;durP2;ratioP2
6356;SDS011;3211;53.452;-2.264;2023-09-08T00:00:07;6.17;;;4.70;;
6356;SDS011;3211;53.452;-2.264;2023-09-08T00:02:50;4.97;;;4.53;;
6356;SDS011;3211;53.452;-2.264;2023-09-08T00:05:32;7.10;;;5.40;;
6356;SDS011;3211;53.452;-2.264;2023-09-08T00:08:14;7.47;;;5.60;;
6356;SDS011;3211;53.452;-2.264;2023-09-08T00:10:57;6.93;;;5.77;;
6356;SDS011;3211;53.452;-2.264;2023-09-08T00:13:39;10.03;;;5.97;;
6356;SDS011;3211;53.452;-2.264;2023-09-08T00:16:21;6.03;;;4.70;;
6356;SDS011;3211;53.452;-2.264;2023-09-08T00:19:03;6.10;;;5.40;;
6356;SDS011;3211;53.452;-2.264;2023-09-08T00:21:45;7.63;;;6.00;;
6356;SDS011;3211;53.452;-2.264;2023-09-08T00:24:27;5.23;;;4.73;;
6356;SDS011;3211;53.452;-2.264;2023-09-08T00:27:11;7.10;;;5.97;;
6356;SDS011;3211;53.452;-2.264;2023-09-08T00:29:52;7.20;;;6.10;;
6356;SDS011;3211;53.452;-2.264;2023-09-08T00:32:34;6.00;;;5.47;;
6356;SDS011;3211;53.452;-2.264;2023-09-08T00:35:19;7.37;;;6.30;;
6356;SDS011;3211;53.452;-2.264;2023-09-08T00:38:01;6.73;;;5.80;;
6356;SDS011;3211;53.452;-2.264;2023-09-08T00:40:43;6.33;;;5.30;;
6356;SDS011;3211;53.452;-2.264;2023-09-08T00:43:27;6.43;;;5.77;;
6356;SDS011;3211;53.452;-2.264;2023-09-08T00:46:09;7.97;;;7.13;;
6356;SDS011;3211;53.452;-2.264;2023-09-08T00:48:51;6.70;;;6.03;;
6356;SDS011;3211;53.452;-2.264;2023-09-08T00:51:34;6.20;;;5.60;;
6356;SDS011;3211;53.452;-2.264;2023-09-08T00:54:17;6.30;;;5.70;;
6356;SDS011;3211;53.452;-2.264;2023-09-08T00:57:00;7.77;;;6.23;;
6356;SDS011;3211;53.452;-2.264;2023-09-08T00:59:44;6.83;;;6.07;;
6356;SDS011;3211;53.452;-2.264;2023-09-08T01:02:27;6.10;;;5.50;;
6356;SDS011;3211;53.452;-2.264;2023-09-08T01:05:09;6.13;;;5.40;;
6356;SDS011;3211;53.452;-2.264;2023-09-08T01:07:51;7.07;;;6.17;;
6356;SDS011;3211;53.452;-2.264;2023-09-08T01:10:35;7.47;;;6.67;;
6356;SDS011;3211;53.452;-2.264;2023-09-08T01:13:18;7.33;;;6.17;;
6356;SDS011;3211;53.452;-2.264;2023-09-08T01:16:01;8.33;;;6.80;;
6356;SDS011;3211;53.452;-2.264;2023-09-08T01:18:43;7.50;;;6.70;;
6356;SDS011;3211;53.452;-2.264;2023-09-08T01:21:37;7.43;;;6.63;;
6356;SDS011;3211;53.452;-2.264;2023-09-08T01:24:57;8.07;;;7.17;;
6356;SDS011;3211;53.452;-2.264;2023-09-08T01:27:57;7.43;;;6.53;;
6356;SDS011;3211;53.452;-2.264;2023-09-08T01:30:42;7.00;;;6.30;;
6356;SDS011;3211;53.452;-2.264;2023-09-08T01:33:24;7.37;;;6.63;;
6356;SDS011;3211;53.452;-2.264;2023-09-08T01:36:07;7.13;;;6.33;;
6356;SDS011;3211;53.452;-2.264;2023-09-08T01:38:49;8.60;;;7.10;;
6356;SDS011;3211;53.452;-2.264;2023-09-08T01:41:32;7.97;;;7.17;;
6356;SDS011;3211;53.452;-2.264;2023-09-08T01:44:15;8.00;;;7.20;;
6356;SDS011;3211;53.452;-2.264;2023-09-08T01:46:57;8.27;;;7.37;;
6356;SDS011;3211;53.452;-2.264;2023-09-08T01:49:39;8.50;;;7.43;;
6356;SDS011;3211;53.452;-2.264;2023-09-08T01:52:20;8.57;;;7.10;;
6356;SDS011;3211;53.452;-2.264;2023-09-08T01:55:03;9.90;;;8.00;;
6356;SDS011;3211;53.452;-2.264;2023-09-08T01:57:47;9.40;;;8.50;;
6356;SDS011;3211;53.452;-2.264;2023-09-08T02:00:29;9.13;;;7.13;;
6356;SDS011;3211;53.452;-2.264;2023-09-08T02:03:11;9.43;;;7.50;;
6356;SDS011;3211;53.452;-2.264;2023-09-08T02:05:53;9.30;;;7.50;;
6356;SDS011;3211;53.452;-2.264;2023-09-08T02:08:35;9.57;;;8.57;;
6356;SDS011;3211;53.452;-2.264;2023-09-08T02:11:17;9.33;;;8.33;;
6356;SDS011;3211;53.452;-2.264;2023-09-08T02:14:00;9.70;;;7.87;;
6356;SDS011;3211;53.452;-2.264;2023-09-08T02:16:42;8.43;;;7.57;;
6356;SDS011;3211;53.452;-2.264;2023-09-08T02:19:25;9.47;;;8.00;;
6356;SDS011;3211;53.452;-2.264;2023-09-08T02:22:07;11.20;;;7.60;;
6356;SDS011;3211;53.452;-2.264;2023-09-08T02:24:49;7.97;;;7.17;;
6356;SDS011;3211;53.452;-2.264;2023-09-08T02:27:32;8.90;;;7.50;;
6356;SDS011;3211;53.452;-2.264;2023-09-08T02:30:15;8.73;;;7.83;;
6356;SDS011;3211;53.452;-2.264;2023-09-08T02:32:57;8.97;;;7.77;;
6356;SDS011;3211;53.452;-2.264;2023-09-08T02:35:39;8.77;;;7.87;;
6356;SDS011;3211;53.452;-2.264;2023-09-08T02:38:21;9.33;;;7.70;;
6356;SDS011;3211;53.452;-2.264;2023-09-08T02:41:03;7.80;;;6.93;;
6356;SDS011;3211;53.452;-2.264;2023-09-08T02:43:45;9.53;;;8.23;;
6356;SDS011;3211;53.452;-2.264;2023-09-08T02:46:29;9.00;;;7.23;;
6356;SDS011;3211;53.452;-2.264;2023-09-08T02:49:11;10.20;;;8.67;;
6356;SDS011;3211;53.452;-2.264;2023-09-08T02:51:52;8.53;;;7.27;;
6356;SDS011;3211;53.452;-2.264;2023-09-08T02:54:34;10.10;;;8.20;;
6356;SDS011;3211;53.452;-2.264;2023-09-08T02:57:16;9.13;;;7.67;;
6356;SDS011;3211;53.452;-2.264;2023-09-08T02:59:59;8.60;;;7.73;;
6356;SDS011;3211;53.452;-2.264;2023-09-08T03:02:42;8.40;;;7.60;;
6356;SDS011;3211;53.452;-2.264;2023-09-08T03:05:24;8.57;;;7.70;;
6356;SDS011;3211;53.452;-2.264;2023-09-08T03:08:06;9.20;;;7.53;;
6356;SDS011;3211;53.452;-2.264;2023-09-08T03:10:48;9.10;;;7.47;;
6356;SDS011;3211;53.452;-2.264;2023-09-08T03:13:30;8.93;;;7.60;;
6356;SDS011;3211;53.452;-2.264;2023-09-08T03:16:14;8.57;;;7.70;;
6356;SDS011;3211;53.452;-2.264;2023-09-08T03:18:58;10.97;;;7.80;;
6356;SDS011;3211;53.452;-2.264;2023-09-08T03:21:40;10.93;;;8.77;;
6356;SDS011;3211;53.452;-2.264;2023-09-08T03:24:22;10.73;;;8.60;;
6356;SDS011;3211;53.452;-2.264;2023-09-08T03:27:04;9.60;;;7.50;;
6356;SDS011;3211;53.452;-2.264;2023-09-08T03:29:46;8.87;;;7.80;;
6356;SDS011;3211;53.452;-2.264;2023-09-08T03:32:28;8.47;;;7.33;;
6356;SDS011;3211;53.452;-2.264;2023-09-08T03:35:11;8.30;;;7.50;;
6356;SDS011;3211;53.452;-2.264;2023-09-08T03:37:53;9.70;;;7.70;;
6356;SDS011;3211;53.452;-2.264;2023-09-08T03:40:35;9.07;;;8.10;;
6356;SDS011;3211;53.452;-2.264;2023-09-08T03:43:18;8.40;;;6.90;;
6356;SDS011;3211;53.452;-2.264;2023-09-08T03:46:00;9.60;;;8.27;;
6356;SDS011;3211;53.452;-2.264;2023-09-08T03:48:41;8.60;;;7.70;;
6356;SDS011;3211;53.452;-2.264;2023-09-08T03:51:25;8.80;;;7.93;;
6356;SDS011;3211;53.452;-2.264;2023-09-08T03:54:07;9.20;;;7.37;;
6356;SDS011;3211;53.452;-2.264;2023-09-08T03:56:49;8.40;;;7.50;;
6356;SDS011;3211;53.452;-2.264;2023-09-08T03:59:31;8.27;;;7.07;;
6356;SDS011;3211;53.452;-2.264;2023-09-08T04:02:13;7.93;;;7.13;;
6356;SDS011;3211;53.452;-2.264;2023-09-08T04:04:55;8.37;;;7.07;;
6356;SDS011;3211;53.452;-2.264;2023-09-08T04:07:38;7.70;;;6.60;;
6356;SDS011;3211;53.452;-2.264;2023-09-08T04:10:20;8.13;;;7.27;;
6356;SDS011;3211;53.452;-2.264;2023-09-08T04:13:02;8.30;;;6.70;;
6356;SDS011;3211;53.452;-2.264;2023-09-08T04:15:44;8.10;;;7.30;;
6356;SDS011;3211;53.452;-2.264;2023-09-08T04:18:26;9.20;;;8.17;;
6356;SDS011;3211;53.452;-2.264;2023-09-08T04:21:08;8.90;;;7.27;;
6356;SDS011;3211;53.452;-2.264;2023-09-08T04:23:51;7.83;;;7.03;;
6356;SDS011;3211;53.452;-2.264;2023-09-08T04:26:33;9.07;;;7.70;;
6356;SDS011;3211;53.452;-2.264;2023-09-08T04:29:15;8.37;;;7.57;;
6356;SDS011;3211;53.452;-2.264;2023-09-08T04:31:57;9.33;;;7.83;;
6356;SDS011;3211;53.452;-2.264;2023-09-08T04:34:40;8.60;;;7.70;;
6356;SDS011;3211;53.452;-2.264;2023-09-08T04:37:23;8.73;;;7.70;;
6356;SDS011;3211;53.452;-2.264;2023-09-08T04:40:06;11.07;;;9.17;;
6356;SDS011;3211;53.452;-2.264;2023-09-08T04:42:50;7.37;;;6.57;;
6356;SDS011;3211;53.452;-2.264;2023-09-08T04:45:31;8.53;;;7.43;;
6356;SDS011;3211;53.452;-2.264;2023-09-08T04:48:13;8.30;;;7.50;;
6356;SDS011;3211;53.452;-2.264;2023-09-08T04:50:56;10.80;;;8.97;;
6356;SDS011;3211;53.452;-2.264;2023-09-08T04:53:38;8.77;;;7.90;;
6356;SDS011;3211;53.452;-2.264;2023-09-08T04:56:21;10.53;;;8.10;;
6356;SDS011;3211;53.452;-2.264;2023-09-08T04:59:03;8.60;;;7.70;;
6356;SDS011;3211;53.452;-2.264;2023-09-08T05:01:45;10.20;;;8.43;;
6356;SDS011;3211;53.452;-2.264;2023-09-08T05:04:27;9.10;;;7.80;;
6356;SDS011;3211;53.452;-2.264;2023-09-08T05:07:09;8.37;;;7.57;;
6356;SDS011;3211;53.452;-2.264;2023-09-08T05:09:53;10.70;;;8.97;;
6356;SDS011;3211;53.452;-2.264;2023-09-08T05:12:36;8.80;;;7.67;;
6356;SDS011;3211;53.452;-2.264;2023-09-08T05:15:18;10.07;;;7.70;;
6356;SDS011;3211;53.452;-2.264;2023-09-08T05:18:01;8.93;;;7.87;;
6356;SDS011;3211;53.452;-2.264;2023-09-08T05:20:43;8.60;;;7.70;;
6356;SDS011;3211;53.452;-2.264;2023-09-08T05:23:25;8.83;;;7.93;;
6356;SDS011;3211;53.452;-2.264;2023-09-08T05:26:07;9.13;;;8.23;;
6356;SDS011;3211;53.452;-2.264;2023-09-08T05:28:50;9.57;;;8.33;;
6356;SDS011;3211;53.452;-2.264;2023-09-08T05:31:32;9.87;;;7.90;;
6356;SDS011;3211;53.452;-2.264;2023-09-08T05:34:14;9.77;;;7.70;;
6356;SDS011;3211;53.452;-2.264;2023-09-08T05:36:56;9.13;;;8.23;;
6356;SDS011;3211;53.452;-2.264;2023-09-08T05:39:39;9.00;;;8.10;;
6356;SDS011;3211;53.452;-2.264;2023-09-08T05:42:21;9.17;;;8.17;;
6356;SDS011;3211;53.452;-2.264;2023-09-08T05:45:05;10.50;;;8.00;;
6356;SDS011;3211;53.452;-2.264;2023-09-08T05:47:48;8.90;;;8.00;;
6356;SDS011;3211;53.452;-2.264;2023-09-08T05:50:31;10.50;;;8.47;;
6356;SDS011;3211;53.452;-2.264;2023-09-08T05:53:12;8.27;;;6.90;;
6356;SDS011;3211;53.452;-2.264;2023-09-08T05:55:54;11.13;;;7.60;;
6356;SDS011;3211;53.452;-2.264;2023-09-08T05:58:36;8.93;;;7.53;;
6356;SDS011;3211;53.452;-2.264;2023-09-08T06:01:20;8.50;;;7.70;;
6356;SDS011;3211;53.452;-2.264;2023-09-08T06:04:02;8.87;;;7.97;;
6356;SDS011;3211;53.452;-2.264;2023-09-08T06:06:44;8.53;;;7.60;;
6356;SDS011;3211;53.452;-2.264;2023-09-08T06:09:26;8.57;;;7.70;;
6356;SDS011;3211;53.452;-2.264;2023-09-08T06:12:08;8.60;;;7.70;;
6356;SDS011;3211;53.452;-2.264;2023-09-08T06:14:50;8.60;;;7.23;;
6356;SDS011;3211;53.452;-2.264;2023-09-08T06:17:33;8.17;;;7.30;;
6356;SDS011;3211;53.452;-2.264;2023-09-08T06:20:15;7.90;;;7.10;;
6356;SDS011;3211;53.452;-2.264;2023-09-08T06:22:57;8.50;;;7.27;;
6356;SDS011;3211;53.452;-2.264;2023-09-08T06:25:40;7.93;;;6.73;;
6356;SDS011;3211;53.452;-2.264;2023-09-08T06:28:22;8.20;;;7.40;;
6356;SDS011;3211;53.452;-2.264;2023-09-08T06:31:04;7.83;;;6.90;;
6356;SDS011;3211;53.452;-2.264;2023-09-08T06:33:47;7.60;;;6.80;;
6356;SDS011;3211;53.452;-2.264;2023-09-08T06:36:35;7.37;;;6.67;;
6356;SDS011;3211;53.452;-2.264;2023-09-08T06:39:21;8.77;;;7.60;;
6356;SDS011;3211;53.452;-2.264;2023-09-08T06:42:06;7.93;;;7.10;;
6356;SDS011;3211;53.452;-2.264;2023-09-08T06:44:48;7.30;;;6.50;;
6356;SDS011;3211;53.452;-2.264;2023-09-08T06:47:30;8.90;;;6.40;;
6356;SDS011;3211;53.452;-2.264;2023-09-08T06:50:14;8.00;;;6.63;;
6356;SDS011;3211;53.452;-2.264;2023-09-08T06:52:56;6.90;;;6.20;;
6356;SDS011;3211;53.452;-2.264;2023-09-08T06:55:38;10.00;;;7.03;;
6356;SDS011;3211;53.452;-2.264;2023-09-08T06:58:20;10.40;;;6.00;;
6356;SDS011;3211;53.452;-2.264;2023-09-08T07:01:02;6.83;;;6.23;;
6356;SDS011;3211;53.452;-2.264;2023-09-08T07:03:44;8.30;;;6.27;;
6356;SDS011;3211;53.452;-2.264;2023-09-08T07:06:28;8.63;;;7.50;;
6356;SDS011;3211;53.452;-2.264;2023-09-08T07:09:09;8.30;;;7.00;;
6356;SDS011;3211;53.452;-2.264;2023-09-08T07:11:51;8.67;;;7.50;;
6356;SDS011;3211;53.452;-2.264;2023-09-08T07:14:34;7.90;;;6.17;;
6356;SDS011;3211;53.452;-2.264;2023-09-08T07:17:16;8.07;;;6.63;;
6356;SDS011;3211;53.452;-2.264;2023-09-08T07:19:58;7.37;;;6.40;;
6356;SDS011;3211;53.452;-2.264;2023-09-08T07:22:41;9.57;;;7.13;;
6356;SDS011;3211;53.452;-2.264;2023-09-08T07:25:23;7.50;;;6.73;;
6356;SDS011;3211;53.452;-2.264;2023-09-08T07:28:05;7.30;;;6.03;;
6356;SDS011;3211;53.452;-2.264;2023-09-08T07:30:47;8.00;;;7.17;;
6356;SDS011;3211;53.452;-2.264;2023-09-08T07:33:29;11.97;;;6.80;;
6356;SDS011;3211;53.452;-2.264;2023-09-08T07:36:11;8.43;;;7.00;;
6356;SDS011;3211;53.452;-2.264;2023-09-08T07:38:55;7.03;;;6.33;;
6356;SDS011;3211;53.452;-2.264;2023-09-08T07:41:37;7.67;;;6.17;;
6356;SDS011;3211;53.452;-2.264;2023-09-08T07:44:20;9.70;;;8.37;;
6356;SDS011;3211;53.452;-2.264;2023-09-08T07:47:02;8.20;;;7.00;;
6356;SDS011;3211;53.452;-2.264;2023-09-08T07:49:45;7.40;;;6.40;;
6356;SDS011;3211;53.452;-2.264;2023-09-08T07:52:27;10.57;;;7.73;;
6356;SDS011;3211;53.452;-2.264;2023-09-08T07:55:11;11.77;;;8.80;;
6356;SDS011;3211;53.452;-2.264;2023-09-08T07:57:53;10.57;;;9.40;;
6356;SDS011;3211;53.452;-2.264;2023-09-08T08:00:36;8.87;;;7.97;;
6356;SDS011;3211;53.452;-2.264;2023-09-08T08:03:18;12.70;;;10.20;;
6356;SDS011;3211;53.452;-2.264;2023-09-08T08:06:00;11.00;;;8.90;;
6356;SDS011;3211;53.452;-2.264;2023-09-08T08:08:42;10.80;;;9.37;;
6356;SDS011;3211;53.452;-2.264;2023-09-08T08:11:25;12.97;;;11.60;;
6356;SDS011;3211;53.452;-2.264;2023-09-08T08:14:08;11.93;;;10.57;;
6356;SDS011;3211;53.452;-2.264;2023-09-08T08:16:50;14.20;;;11.40;;
6356;SDS011;3211;53.452;-2.264;2023-09-08T08:19:32;12.97;;;10.17;;
6356;SDS011;3211;53.452;-2.264;2023-09-08T08:22:14;12.67;;;10.60;;
6356;SDS011;3211;53.452;-2.264;2023-09-08T08:24:55;13.60;;;11.13;;
6356;SDS011;3211;53.452;-2.264;2023-09-08T08:27:39;12.20;;;10.90;;
6356;SDS011;3211;53.452;-2.264;2023-09-08T08:30:21;12.93;;;11.57;;
6356;SDS011;3211;53.452;-2.264;2023-09-08T08:33:03;13.00;;;11.47;;
6356;SDS011;3211;53.452;-2.264;2023-09-08T08:35:49;13.87;;;11.80;;
6356;SDS011;3211;53.452;-2.264;2023-09-08T08:38:31;14.37;;;11.07;;
6356;SDS011;3211;53.452;-2.264;2023-09-08T08:41:13;17.27;;;11.00;;
6356;SDS011;3211;53.452;-2.264;2023-09-08T08:43:56;13.40;;;10.83;;
6356;SDS011;3211;53.452;-2.264;2023-09-08T08:46:40;11.60;;;10.20;;
6356;SDS011;3211;53.452;-2.264;2023-09-08T08:49:24;13.90;;;12.07;;
6356;SDS011;3211;53.452;-2.264;2023-09-08T08:52:07;14.70;;;12.27;;
6356;SDS011;3211;53.452;-2.264;2023-09-08T08:54:50;15.17;;;13.50;;
6356;SDS011;3211;53.452;-2.264;2023-09-08T08:57:32;12.33;;;11.03;;
6356;SDS011;3211;53.452;-2.264;2023-09-08T09:00:15;11.83;;;10.63;;
6356;SDS011;3211;53.452;-2.264;2023-09-08T09:02:58;14.67;;;11.93;;
6356;SDS011;3211;53.452;-2.264;2023-09-08T09:05:41;14.40;;;11.10;;
6356;SDS011;3211;53.452;-2.264;2023-09-08T09:08:24;14.17;;;10.90;;
6356;SDS011;3211;53.452;-2.264;2023-09-08T09:11:07;14.23;;;11.43;;
6356;SDS011;3211;53.452;-2.264;2023-09-08T09:13:49;16.73;;;13.50;;
6356;SDS011;3211;53.452;-2.264;2023-09-08T09:16:35;12.20;;;10.80;;
6356;SDS011;3211;53.452;-2.264;2023-09-08T09:19:20;13.93;;;11.77;;
6356;SDS011;3211;53.452;-2.264;2023-09-08T09:22:07;15.67;;;12.97;;
6356;SDS011;3211;53.452;-2.264;2023-09-08T09:24:49;16.50;;;12.80;;
6356;SDS011;3211;53.452;-2.264;2023-09-08T09:27:31;13.93;;;12.30;;
6356;SDS011;3211;53.452;-2.264;2023-09-08T09:30:16;15.40;;;11.63;;
6356;SDS011;3211;53.452;-2.264;2023-09-08T09:33:01;16.17;;;12.00;;
6356;SDS011;3211;53.452;-2.264;2023-09-08T09:35:44;13.70;;;12.23;;
6356;SDS011;3211;53.452;-2.264;2023-09-08T09:38:27;12.83;;;11.63;;
6356;SDS011;3211;53.452;-2.264;2023-09-08T09:41:09;11.00;;;9.87;;
6356;SDS011;3211;53.452;-2.264;2023-09-08T09:43:51;13.53;;;12.23;;
6356;SDS011;3211;53.452;-2.264;2023-09-08T09:46:34;13.50;;;11.70;;
6356;SDS011;3211;53.452;-2.264;2023-09-08T09:49:17;14.20;;;11.83;;
6356;SDS011;3211;53.452;-2.264;2023-09-08T09:51:59;15.20;;;12.77;;
6356;SDS011;3211;53.452;-2.264;2023-09-08T09:54:42;13.07;;;10.33;;
6356;SDS011;3211;53.452;-2.264;2023-09-08T09:57:24;15.90;;;13.00;;
6356;SDS011;3211;53.452;-2.264;2023-09-08T10:00:08;12.90;;;11.33;;
6356;SDS011;3211;53.452;-2.264;2023-09-08T10:02:51;16.13;;;12.13;;
6356;SDS011;3211;53.452;-2.264;2023-09-08T10:05:35;13.93;;;10.63;;
6356;SDS011;3211;53.452;-2.264;2023-09-08T10:08:18;18.03;;;10.73;;
6356;SDS011;3211;53.452;-2.264;2023-09-08T10:11:00;12.40;;;11.10;;
6356;SDS011;3211;53.452;-2.264;2023-09-08T10:13:46;13.80;;;10.93;;
6356;SDS011;3211;53.452;-2.264;2023-09-08T10:16:31;10.53;;;9.37;;
6356;SDS011;3211;53.452;-2.264;2023-09-08T10:19:16;14.13;;;10.80;;
6356;SDS011;3211;53.452;-2.264;2023-09-08T10:22:00;13.47;;;12.00;;
6356;SDS011;3211;53.452;-2.264;2023-09-08T10:24:44;11.50;;;9.70;;
6356;SDS011;3211;53.452;-2.264;2023-09-08T10:27:29;10.50;;;9.27;;
6356;SDS011;3211;53.452;-2.264;2023-09-08T10:30:12;10.73;;;9.10;;
6356;SDS011;3211;53.452;-2.264;2023-09-08T10:32:57;13.20;;;10.60;;
6356;SDS011;3211;53.452;-2.264;2023-09-08T10:35:40;11.30;;;9.60;;
6356;SDS011;3211;53.452;-2.264;2023-09-08T10:38:26;9.00;;;8.10;;
6356;SDS011;3211;53.452;-2.264;2023-09-08T10:41:27;12.30;;;9.90;;
6356;SDS011;3211;53.452;-2.264;2023-09-08T10:44:13;13.77;;;9.53;;
6356;SDS011;3211;53.452;-2.264;2023-09-08T10:46:57;14.73;;;10.90;;
6356;SDS011;3211;53.452;-2.264;2023-09-08T10:49:40;11.23;;;9.33;;
6356;SDS011;3211;53.452;-2.264;2023-09-08T10:52:22;12.80;;;10.40;;
6356;SDS011;3211;53.452;-2.264;2023-09-08T10:55:07;12.13;;;10.20;;
6356;SDS011;3211;53.452;-2.264;2023-09-08T10:57:49;12.50;;;10.50;;
6356;SDS011;3211;53.452;-2.264;2023-09-08T11:00:42;12.73;;;10.00;;
6356;SDS011;3211;53.452;-2.264;2023-09-08T11:03:26;12.97;;;10.60;;
6356;SDS011;3211;53.452;-2.264;2023-09-08T11:06:10;12.17;;;9.07;;
6356;SDS011;3211;53.452;-2.264;2023-09-08T11:08:52;10.77;;;9.67;;
6356;SDS011;3211;53.452;-2.264;2023-09-08T11:11:37;12.53;;;10.23;;
6356;SDS011;3211;53.452;-2.264;2023-09-08T11:14:20;12.33;;;9.20;;
6356;SDS011;3211;53.452;-2.264;2023-09-08T11:17:02;8.87;;;7.90;;
6356;SDS011;3211;53.452;-2.264;2023-09-08T11:19:45;10.10;;;8.00;;
6356;SDS011;3211;53.452;-2.264;2023-09-08T11:22:28;10.87;;;9.00;;
6356;SDS011;3211;53.452;-2.264;2023-09-08T11:25:11;12.63;;;9.07;;
6356;SDS011;3211;53.452;-2.264;2023-09-08T11:27:54;9.57;;;7.70;;
6356;SDS011;3211;53.452;-2.264;2023-09-08T11:30:36;9.37;;;8.30;;
6356;SDS011;3211;53.452;-2.264;2023-09-08T11:33:19;10.20;;;8.53;;
6356;SDS011;3211;53.452;-2.264;2023-09-08T11:36:10;15.07;;;10.53;;
6356;SDS011;3211;53.452;-2.264;2023-09-08T11:38:54;11.83;;;9.60;;
6356;SDS011;3211;53.452;-2.264;2023-09-08T11:41:36;10.83;;;9.40;;
6356;SDS011;3211;53.452;-2.264;2023-09-08T11:44:19;10.77;;;9.10;;
6356;SDS011;3211;53.452;-2.264;2023-09-08T11:47:02;12.97;;;9.80;;
6356;SDS011;3211;53.452;-2.264;2023-09-08T11:49:45;11.53;;;8.93;;
6356;SDS011;3211;53.452;-2.264;2023-09-08T11:52:27;9.33;;;7.93;;
6356;SDS011;3211;53.452;-2.264;2023-09-08T11:55:09;11.83;;;8.73;;
6356;SDS011;3211;53.452;-2.264;2023-09-08T11:57:53;11.33;;;7.60;;
6356;SDS011;3211;53.452;-2.264;2023-09-08T12:00:39;11.20;;;8.47;;
6356;SDS011;3211;53.452;-2.264;2023-09-08T12:03:22;14.70;;;9.93;;
6356;SDS011;3211;53.452;-2.264;2023-09-08T12:06:03;11.33;;;8.67;;
6356;SDS011;3211;53.452;-2.264;2023-09-08T12:08:45;11.90;;;8.57;;
6356;SDS011;3211;53.452;-2.264;2023-09-08T12:11:31;9.83;;;7.80;;
6356;SDS011;3211;53.452;-2.264;2023-09-08T12:14:15;9.57;;;7.50;;
6356;SDS011;3211;53.452;-2.264;2023-09-08T12:17:06;12.70;;;8.57;;
6356;SDS011;3211;53.452;-2.264;2023-09-08T12:19:48;13.50;;;8.23;;
6356;SDS011;3211;53.452;-2.264;2023-09-08T12:22:32;11.17;;;8.73;;
6356;SDS011;3211;53.452;-2.264;2023-09-08T12:25:14;11.37;;;8.40;;
6356;SDS011;3211;53.452;-2.264;2023-09-08T12:27:56;9.37;;;7.40;;
6356;SDS011;3211;53.452;-2.264;2023-09-08T12:30:39;9.47;;;7.73;;
6356;SDS011;3211;53.452;-2.264;2023-09-08T12:33:23;11.43;;;9.10;;
6356;SDS011;3211;53.452;-2.264;2023-09-08T12:36:10;10.80;;;9.70;;
6356;SDS011;3211;53.452;-2.264;2023-09-08T12:38:54;8.90;;;8.00;;
6356;SDS011;3211;53.452;-2.264;2023-09-08T12:41:36;9.53;;;8.10;;
6356;SDS011;3211;53.452;-2.264;2023-09-08T12:44:18;8.70;;;7.80;;
6356;SDS011;3211;53.452;-2.264;2023-09-08T12:47:00;8.80;;;6.90;;
6356;SDS011;3211;53.452;-2.264;2023-09-08T12:49:44;9.30;;;7.83;;
6356;SDS011;3211;53.452;-2.264;2023-09-08T12:52:26;10.07;;;9.03;;
6356;SDS011;3211;53.452;-2.264;2023-09-08T12:55:08;9.33;;;7.53;;
6356;SDS011;3211;53.452;-2.264;2023-09-08T12:57:50;6.90;;;6.20;;
6356;SDS011;3211;53.452;-2.264;2023-09-08T13:00:34;8.93;;;8.03;;
6356;SDS011;3211;53.452;-2.264;2023-09-08T13:03:16;9.60;;;7.47;;
6356;SDS011;3211;53.452;-2.264;2023-09-08T13:06:00;8.03;;;6.77;;
6356;SDS011;3211;53.452;-2.264;2023-09-08T13:08:42;7.63;;;6.90;;
6356;SDS011;3211;53.452;-2.264;2023-09-08T13:11:24;7.30;;;6.23;;
6356;SDS011;3211;53.452;-2.264;2023-09-08T13:14:06;8.50;;;7.17;;
6356;SDS011;3211;53.452;-2.264;2023-09-08T13:16:48;7.40;;;6.57;;
6356;SDS011;3211;53.452;-2.264;2023-09-08T13:19:31;8.83;;;6.37;;
6356;SDS011;3211;53.452;-2.264;2023-09-08T13:22:15;8.20;;;6.20;;
6356;SDS011;3211;53.452;-2.264;2023-09-08T13:24:57;7.67;;;5.73;;
6356;SDS011;3211;53.452;-2.264;2023-09-08T13:27:40;7.77;;;6.90;;
6356;SDS011;3211;53.452;-2.264;2023-09-08T13:30:21;10.30;;;8.50;;
6356;SDS011;3211;53.452;-2.264;2023-09-08T13:33:06;7.60;;;6.90;;
6356;SDS011;3211;53.452;-2.264;2023-09-08T13:35:48;7.97;;;7.10;;
6356;SDS011;3211;53.452;-2.264;2023-09-08T13:38:31;7.63;;;6.60;;
6356;SDS011;3211;53.452;-2.264;2023-09-08T13:41:14;7.87;;;6.97;;
6356;SDS011;3211;53.452;-2.264;2023-09-08T13:43:56;7.10;;;6.40;;
6356;SDS011;3211;53.452;-2.264;2023-09-08T13:46:39;8.70;;;7.47;;
6356;SDS011;3211;53.452;-2.264;2023-09-08T13:49:21;10.90;;;7.37;;
6356;SDS011;3211;53.452;-2.264;2023-09-08T13:52:04;10.30;;;6.80;;
6356;SDS011;3211;53.452;-2.264;2023-09-08T13:54:48;8.90;;;7.40;;
6356;SDS011;3211;53.452;-2.264;2023-09-08T13:57:30;6.10;;;5.50;;
6356;SDS011;3211;53.452;-2.264;2023-09-08T14:00:12;9.67;;;8.50;;
6356;SDS011;3211;53.452;-2.264;2023-09-08T14:02:55;8.67;;;7.77;;
6356;SDS011;3211;53.452;-2.264;2023-09-08T14:05:37;8.60;;;6.20;;
6356;SDS011;3211;53.452;-2.264;2023-09-08T14:08:19;8.10;;;7.27;;
6356;SDS011;3211;53.452;-2.264;2023-09-08T14:11:02;7.40;;;6.10;;
6356;SDS011;3211;53.452;-2.264;2023-09-08T14:13:44;7.30;;;5.70;;
6356;SDS011;3211;53.452;-2.264;2023-09-08T14:16:26;8.33;;;6.47;;
6356;SDS011;3211;53.452;-2.264;2023-09-08T14:19:08;9.40;;;7.77;;
6356;SDS011;3211;53.452;-2.264;2023-09-08T14:21:50;10.60;;;7.90;;
6356;SDS011;3211;53.452;-2.264;2023-09-08T14:24:32;7.17;;;6.47;;
6356;SDS011;3211;53.452;-2.264;2023-09-08T14:27:15;7.10;;;6.30;;
6356;SDS011;3211;53.452;-2.264;2023-09-08T14:29:58;8.80;;;7.20;;
6356;SDS011;3211;53.452;-2.264;2023-09-08T14:32:40;6.23;;;5.63;;
6356;SDS011;3211;53.452;-2.264;2023-09-08T14:35:22;9.67;;;6.63;;
6356;SDS011;3211;53.452;-2.264;2023-09-08T14:38:04;7.97;;;6.60;;
6356;SDS011;3211;53.452;-2.264;2023-09-08T14:40:53;7.63;;;6.57;;
6356;SDS011;3211;53.452;-2.264;2023-09-08T14:43:37;7.20;;;6.50;;
6356;SDS011;3211;53.452;-2.264;2023-09-08T14:46:19;8.70;;;6.30;;
6356;SDS011;3211;53.452;-2.264;2023-09-08T14:49:01;6.77;;;4.93;;
6356;SDS011;3211;53.452;-2.264;2023-09-08T14:51:43;10.13;;;7.90;;
6356;SDS011;3211;53.452;-2.264;2023-09-08T14:54:25;6.87;;;6.00;;
6356;SDS011;3211;53.452;-2.264;2023-09-08T14:57:09;8.57;;;7.20;;
6356;SDS011;3211;53.452;-2.264;2023-09-08T14:59:52;7.40;;;6.63;;
6356;SDS011;3211;53.452;-2.264;2023-09-08T15:02:35;11.20;;;6.93;;
6356;SDS011;3211;53.452;-2.264;2023-09-08T15:05:17;12.93;;;7.13;;
6356;SDS011;3211;53.452;-2.264;2023-09-08T15:08:00;10.57;;;7.20;;
6356;SDS011;3211;53.452;-2.264;2023-09-08T15:10:43;8.20;;;7.13;;
6356;SDS011;3211;53.452;-2.264;2023-09-08T15:13:25;8.30;;;7.00;;
6356;SDS011;3211;53.452;-2.264;2023-09-08T15:16:08;8.00;;;6.87;;
6356;SDS011;3211;53.452;-2.264;2023-09-08T15:18:50;9.23;;;6.83;;
6356;SDS011;3211;53.452;-2.264;2023-09-08T15:21:32;8.87;;;7.50;;
6356;SDS011;3211;53.452;-2.264;2023-09-08T15:24:14;8.10;;;7.20;;
6356;SDS011;3211;53.452;-2.264;2023-09-08T15:26:56;12.87;;;7.70;;
6356;SDS011;3211;53.452;-2.264;2023-09-08T15:29:40;12.93;;;7.50;;
6356;SDS011;3211;53.452;-2.264;2023-09-08T15:32:24;8.00;;;7.20;;
6356;SDS011;3211;53.452;-2.264;2023-09-08T15:35:06;12.70;;;7.60;;
6356;SDS011;3211;53.452;-2.264;2023-09-08T15:37:49;9.10;;;8.20;;
6356;SDS011;3211;53.452;-2.264;2023-09-08T15:40:31;7.80;;;7.00;;
6356;SDS011;3211;53.452;-2.264;2023-09-08T15:43:13;9.70;;;7.83;;
6356;SDS011;3211;53.452;-2.264;2023-09-08T15:45:54;10.23;;;7.07;;
6356;SDS011;3211;53.452;-2.264;2023-09-08T15:48:38;9.37;;;7.63;;
6356;SDS011;3211;53.452;-2.264;2023-09-08T15:51:20;8.87;;;6.90;;
6356;SDS011;3211;53.452;-2.264;2023-09-08T15:54:02;9.87;;;8.80;;
6356;SDS011;3211;53.452;-2.264;2023-09-08T15:56:46;8.87;;;7.07;;
6356;SDS011;3211;53.452;-2.264;2023-09-08T15:59:28;7.73;;;6.93;;
6356;SDS011;3211;53.452;-2.264;2023-09-08T16:02:11;14.60;;;8.40;;
6356;SDS011;3211;53.452;-2.264;2023-09-08T16:04:54;8.53;;;7.50;;
6356;SDS011;3211;53.452;-2.264;2023-09-08T16:07:37;9.40;;;8.20;;
6356;SDS011;3211;53.452;-2.264;2023-09-08T16:10:21;8.47;;;7.00;;
6356;SDS011;3211;53.452;-2.264;2023-09-08T16:13:03;7.33;;;6.60;;
6356;SDS011;3211;53.452;-2.264;2023-09-08T16:15:45;8.30;;;7.33;;
6356;SDS011;3211;53.452;-2.264;2023-09-08T16:18:27;8.33;;;7.47;;
6356;SDS011;3211;53.452;-2.264;2023-09-08T16:21:12;8.73;;;7.00;;
6356;SDS011;3211;53.452;-2.264;2023-09-08T16:23:54;7.50;;;6.80;;
6356;SDS011;3211;53.452;-2.264;2023-09-08T16:26:36;6.70;;;5.90;;
6356;SDS011;3211;53.452;-2.264;2023-09-08T16:29:18;7.40;;;6.57;;